createdAt,value
2022-12-31T00:01:22.981Z,74.41
2022-12-31T00:17:12.698Z,75.91
2022-12-31T00:20:15.393Z,75.73
2022-12-31T00:28:50.508Z,75.47
2022-12-31T00:31:53.083Z,75.49
2022-12-31T00:34:56.490Z,75.57
2022-12-31T00:37:58.857Z,75.57
2022-12-31T00:41:01.414Z,75.52
2022-12-31T00:44:06.915Z,75.55
2022-12-31T00:47:12.423Z,75.59
2022-12-31T00:50:15.213Z,75.72
2022-12-31T00:53:17.489Z,75.79
2022-12-31T00:56:26.376Z,75.79
2022-12-31T00:59:29.973Z,75.55
2022-12-31T01:02:32.563Z,75.70
2022-12-31T01:05:36.943Z,75.74
2022-12-31T01:08:39.366Z,75.79
2022-12-31T01:11:41.969Z,75.86
2022-12-31T01:14:48.308Z,75.89
2022-12-31T01:17:52.958Z,75.89
2022-12-31T01:25:06.276Z,75.98
2022-12-31T01:30:10.773Z,76.02
2022-12-31T01:46:16.922Z,76.83
2022-12-31T01:53:40.852Z,76.66
2022-12-31T02:01:37.924Z,76.50
2022-12-31T02:04:53.367Z,76.63
2022-12-31T02:08:13.591Z,76.76
2022-12-31T02:12:00.622Z,77.08
2022-12-31T02:15:15.123Z,77.15
2022-12-31T02:18:49.694Z,77.48
2022-12-31T02:22:28.007Z,77.64
2022-12-31T02:26:02.152Z,77.79
2022-12-31T02:30:06.658Z,77.88
2022-12-31T02:34:28.755Z,77.73
2022-12-31T02:38:49.378Z,78.55
2022-12-31T02:41:57.379Z,78.75
2022-12-31T02:44:59.590Z,78.81
2022-12-31T02:48:22.154Z,78.78
2022-12-31T02:51:33.546Z,78.67
2022-12-31T02:55:13.312Z,78.62
2022-12-31T02:58:22.244Z,78.62
2022-12-31T03:01:54.005Z,78.68
2022-12-31T03:05:19.537Z,78.76
2022-12-31T03:09:15.201Z,78.69
2022-12-31T03:24:28.807Z,80.82
2022-12-31T03:27:30.881Z,80.64
2022-12-31T03:30:33.934Z,80.45
2022-12-31T03:33:39.349Z,80.20
2022-12-31T03:36:41.407Z,80.18
2022-12-31T03:39:43.571Z,80.24
2022-12-31T03:42:46.054Z,80.26
2022-12-31T03:45:53.193Z,80.10
2022-12-31T03:48:56.568Z,80.15
2022-12-31T03:51:59.216Z,80.24
2022-12-31T03:55:05.324Z,80.14
2022-12-31T03:58:07.959Z,80.11
2022-12-31T04:01:10.434Z,80.07
2022-12-31T04:04:12.449Z,79.90
2022-12-31T04:07:14.565Z,79.94
2022-12-31T04:10:24.964Z,79.69
2022-12-31T04:13:58.787Z,79.49
2022-12-31T04:17:16.353Z,79.59
2022-12-31T04:20:21.045Z,79.65
2022-12-31T04:23:49.340Z,79.66
2022-12-31T04:29:32.728Z,79.71
2022-12-31T04:33:09.261Z,79.85
2022-12-31T04:56:44.296Z,80.34
2022-12-31T05:00:51.467Z,80.32
2022-12-31T05:09:57.650Z,80.81
2022-12-31T05:13:55.908Z,80.65
2022-12-31T05:17:11.337Z,80.52
2022-12-31T05:20:15.437Z,80.50
2022-12-31T05:23:19.092Z,80.42
2022-12-31T05:26:22.588Z,80.38
2022-12-31T05:29:25.971Z,80.37
2022-12-31T05:32:29.727Z,80.47
2022-12-31T05:35:33.328Z,80.48
2022-12-31T05:38:38.520Z,80.57
2022-12-31T05:41:42.009Z,80.71
2022-12-31T05:44:47.185Z,80.73
2022-12-31T05:47:50.596Z,80.76
2022-12-31T05:50:54.215Z,80.81
2022-12-31T05:53:57.907Z,80.65
2022-12-31T05:57:01.306Z,80.76
2022-12-31T06:00:07.014Z,80.76
2022-12-31T06:03:16.835Z,80.86
2022-12-31T06:06:20.165Z,80.91
2022-12-31T06:09:23.718Z,80.95
2022-12-31T06:12:27.056Z,81.08
2022-12-31T06:15:30.721Z,81.15
2022-12-31T06:18:34.368Z,81.00
2022-12-31T06:21:39.589Z,81.11
2022-12-31T06:24:44.010Z,81.14
2022-12-31T06:27:47.465Z,81.17
2022-12-31T06:30:50.850Z,81.18
2022-12-31T06:33:54.596Z,81.19
2022-12-31T06:36:59.370Z,81.28
2022-12-31T06:40:03.266Z,81.28
2022-12-31T06:43:06.649Z,81.30
2022-12-31T06:46:14.968Z,81.24
2022-12-31T06:49:18.394Z,81.28
2022-12-31T06:52:22.588Z,81.30
2022-12-31T06:55:29.758Z,81.39
2022-12-31T06:58:33.633Z,81.23
2022-12-31T07:01:44.447Z,81.25
2022-12-31T07:05:29.596Z,81.40
2022-12-31T07:08:57.518Z,81.45
2022-12-31T07:12:26.221Z,81.47
2022-12-31T07:16:08.397Z,81.47
2022-12-31T07:20:05.185Z,81.46
2022-12-31T07:23:24.399Z,81.36
2022-12-31T07:27:41.158Z,81.31
2022-12-31T07:31:06.545Z,81.20
2022-12-31T07:34:43.162Z,81.21
2022-12-31T07:38:08.805Z,81.05
2022-12-31T07:41:49.231Z,81.11
2022-12-31T07:45:14.621Z,81.17
2022-12-31T07:48:26.649Z,81.22
2022-12-31T07:51:30.235Z,81.32
2022-12-31T07:54:33.564Z,81.34
2022-12-31T07:57:55.700Z,81.31
2022-12-31T08:01:01.008Z,81.39
2022-12-31T08:04:04.412Z,81.36
2022-12-31T08:07:35.009Z,81.35
2022-12-31T08:11:02.098Z,81.46
2022-12-31T08:14:10.200Z,81.53
2022-12-31T08:17:15.608Z,81.38
2022-12-31T08:20:19.091Z,81.38
2022-12-31T08:23:28.587Z,81.39
2022-12-31T08:26:42.028Z,81.48
2022-12-31T08:30:07.400Z,81.34
2022-12-31T08:33:22.568Z,81.17
2022-12-31T08:36:37.557Z,81.03
2022-12-31T08:40:08.511Z,80.92
2022-12-31T08:43:21.033Z,80.80
2022-12-31T08:46:45.871Z,80.70
2022-12-31T08:49:49.714Z,80.66
2022-12-31T08:52:53.428Z,80.52
2022-12-31T08:56:08.054Z,80.48
2022-12-31T08:59:36.745Z,80.27
2022-12-31T09:03:03.466Z,80.31
2022-12-31T09:06:16.027Z,80.28
2022-12-31T09:09:25.044Z,80.30
2022-12-31T09:12:49.319Z,80.31
2022-12-31T09:16:17.506Z,80.31
2022-12-31T09:19:20.919Z,80.28
2022-12-31T09:22:24.471Z,80.27
2022-12-31T09:25:29.093Z,80.39
2022-12-31T09:29:24.830Z,80.44
2022-12-31T09:32:46.473Z,80.44
2022-12-31T09:36:01.341Z,80.31
2022-12-31T09:39:16.857Z,80.22
2022-12-31T09:43:03.329Z,80.03
2022-12-31T09:46:21.352Z,80.03
2022-12-31T09:49:47.657Z,80.04
2022-12-31T09:53:10.173Z,79.97
2022-12-31T09:56:25.516Z,79.92
2022-12-31T09:59:45.755Z,79.93
2022-12-31T10:03:17.154Z,79.98
2022-12-31T10:06:26.155Z,80.08
2022-12-31T10:09:38.317Z,80.16
2022-12-31T10:13:03.683Z,80.21
2022-12-31T10:16:28.821Z,80.29
2022-12-31T10:20:10.606Z,80.45
2022-12-31T10:23:32.103Z,80.40
2022-12-31T10:27:09.375Z,80.38
2022-12-31T10:30:20.421Z,80.47
2022-12-31T10:34:23.074Z,80.37
2022-12-31T10:37:33.199Z,80.45
2022-12-31T10:40:42.603Z,80.54
2022-12-31T10:44:15.067Z,80.61
2022-12-31T10:47:41.247Z,80.61
2022-12-31T10:50:55.018Z,80.55
2022-12-31T10:54:04.102Z,80.56
2022-12-31T10:57:36.165Z,80.40
2022-12-31T11:01:06.210Z,80.57
2022-12-31T11:04:27.929Z,80.66
2022-12-31T11:08:02.069Z,80.82
2022-12-31T11:11:14.000Z,80.95
2022-12-31T11:14:42.825Z,80.84
2022-12-31T11:17:48.563Z,80.78
2022-12-31T11:21:17.210Z,80.68
2022-12-31T11:24:47.221Z,80.57
2022-12-31T11:27:56.415Z,80.41
2022-12-31T11:31:02.658Z,80.12
2022-12-31T11:34:38.001Z,80.08
2022-12-31T11:37:54.631Z,80.17
2022-12-31T11:41:08.249Z,80.20
2022-12-31T11:44:35.583Z,80.14
2022-12-31T11:48:28.706Z,80.11
2022-12-31T11:51:25.708Z,80.02
2022-12-31T11:54:43.032Z,80.00
2022-12-31T11:57:51.310Z,79.92
2022-12-31T12:01:33.738Z,79.82
2022-12-31T12:04:37.032Z,79.64
2022-12-31T12:07:40.251Z,79.38
2022-12-31T12:10:51.033Z,79.27
2022-12-31T12:13:54.425Z,79.24
2022-12-31T12:17:04.318Z,79.22
2022-12-31T12:20:24.708Z,79.29
2022-12-31T12:23:28.060Z,79.26
2022-12-31T12:26:41.671Z,79.20
2022-12-31T12:29:47.491Z,79.20
2022-12-31T12:33:02.279Z,79.19
2022-12-31T12:36:11.497Z,79.17
2022-12-31T12:39:32.585Z,79.21
2022-12-31T12:42:36.182Z,79.25
2022-12-31T12:45:51.357Z,79.32
2022-12-31T12:48:57.513Z,79.29
2022-12-31T12:52:27.585Z,79.31
2022-12-31T12:55:43.233Z,79.31
2022-12-31T12:58:58.471Z,79.35
2022-12-31T13:02:39.471Z,79.39
2022-12-31T13:05:52.494Z,79.42
2022-12-31T13:09:01.599Z,79.40
2022-12-31T13:12:08.065Z,79.38
2022-12-31T13:15:34.162Z,79.40
2022-12-31T13:18:49.259Z,79.43
2022-12-31T13:22:04.236Z,79.44
2022-12-31T13:25:28.852Z,79.44
2022-12-31T13:28:34.330Z,79.48
2022-12-31T13:31:39.627Z,79.45
2022-12-31T13:34:46.492Z,79.45
2022-12-31T13:37:53.118Z,79.49
2022-12-31T13:41:18.397Z,79.57
2022-12-31T13:44:30.957Z,79.58
2022-12-31T13:47:40.862Z,79.66
2022-12-31T13:51:01.848Z,79.71
2022-12-31T13:54:24.644Z,79.74
2022-12-31T13:57:37.470Z,79.77
2022-12-31T14:01:01.907Z,79.79
2022-12-31T14:04:19.955Z,79.86
2022-12-31T14:07:45.395Z,79.89
2022-12-31T14:10:58.199Z,79.93
2022-12-31T14:14:01.462Z,79.93
2022-12-31T14:17:11.299Z,80.01
2022-12-31T14:20:29.011Z,80.02
2022-12-31T14:23:59.543Z,80.04
2022-12-31T14:27:09.243Z,80.09
2022-12-31T14:30:22.072Z,80.10
2022-12-31T14:33:41.748Z,80.10
2022-12-31T14:37:00.265Z,80.12
2022-12-31T14:40:37.191Z,80.15
2022-12-31T14:43:48.474Z,80.20
2022-12-31T14:47:08.552Z,80.17
2022-12-31T14:50:15.441Z,80.21
2022-12-31T14:53:25.013Z,80.23
2022-12-31T14:56:33.372Z,80.26
2022-12-31T14:59:40.387Z,80.29
2022-12-31T15:02:51.120Z,80.30
2022-12-31T15:06:03.739Z,80.32
2022-12-31T15:09:15.608Z,80.34
2022-12-31T15:12:24.417Z,80.29
2022-12-31T15:15:33.505Z,80.29
2022-12-31T15:18:55.471Z,80.29
2022-12-31T15:22:14.290Z,80.33
2022-12-31T15:25:33.863Z,80.33
2022-12-31T15:28:41.030Z,80.37
2022-12-31T15:31:49.944Z,80.36
2022-12-31T15:35:24.161Z,80.38
2022-12-31T15:38:35.065Z,80.34
2022-12-31T15:41:46.147Z,80.30
2022-12-31T15:45:06.407Z,80.31
2022-12-31T15:48:23.898Z,80.30
2022-12-31T15:51:34.599Z,80.29
2022-12-31T15:54:42.546Z,80.31
2022-12-31T15:57:46.562Z,80.31
2022-12-31T16:01:05.005Z,80.28
2022-12-31T16:04:16.637Z,80.25
2022-12-31T16:07:20.682Z,80.24
2022-12-31T16:10:28.207Z,80.22
2022-12-31T16:13:35.028Z,80.23
2022-12-31T16:16:38.593Z,80.22
2022-12-31T16:19:49.083Z,80.18
2022-12-31T16:22:56.251Z,80.17
2022-12-31T16:26:02.547Z,80.16
2022-12-31T16:29:05.981Z,80.10
2022-12-31T16:32:15.855Z,80.09
2022-12-31T16:35:28.676Z,80.06
2022-12-31T16:38:37.039Z,80.04
2022-12-31T16:41:44.166Z,80.02
2022-12-31T16:44:48.573Z,80.00
2022-12-31T16:47:52.095Z,80.00
2022-12-31T16:50:56.984Z,79.96
2022-12-31T16:54:02.140Z,79.95
2022-12-31T16:57:19.262Z,79.93
2022-12-31T17:00:25.318Z,79.92
2022-12-31T17:03:29.729Z,79.88
2022-12-31T17:06:33.793Z,79.84
2022-12-31T17:09:38.011Z,79.80
2022-12-31T17:16:20.436Z,79.75
2022-12-31T17:19:38.894Z,79.68
2022-12-31T17:22:44.357Z,79.65
2022-12-31T17:25:47.722Z,79.59
2022-12-31T17:28:53.273Z,79.54
2022-12-31T17:32:23.795Z,79.50
2022-12-31T17:35:30.944Z,79.41
2022-12-31T17:38:36.286Z,79.33
2022-12-31T17:41:39.523Z,79.25
2022-12-31T17:44:44.730Z,79.16
2022-12-31T17:47:51.190Z,79.07
2022-12-31T17:51:01.597Z,78.99
2022-12-31T17:54:17.941Z,78.91
2022-12-31T17:57:25.856Z,78.83
2022-12-31T18:00:29.368Z,78.75
2022-12-31T18:03:32.767Z,78.66
2022-12-31T18:06:36.000Z,78.58
2022-12-31T18:09:39.227Z,78.51
2022-12-31T18:12:44.610Z,78.47
2022-12-31T18:15:48.783Z,78.39
2022-12-31T18:18:52.122Z,78.33
2022-12-31T18:21:57.709Z,78.27
2022-12-31T18:25:01.158Z,78.23
2022-12-31T18:28:09.548Z,78.18
2022-12-31T18:31:39.502Z,78.16
2022-12-31T18:34:42.710Z,78.14
2022-12-31T18:37:46.440Z,78.12
2022-12-31T18:40:59.121Z,78.08
2022-12-31T18:44:02.404Z,78.04
2022-12-31T18:47:15.095Z,78.02
2022-12-31T18:53:40.783Z,77.96
2022-12-31T18:56:48.313Z,77.93
2022-12-31T18:59:55.102Z,77.89
2022-12-31T19:02:58.642Z,77.87
2022-12-31T19:06:02.138Z,77.84
2022-12-31T19:09:13.258Z,77.84
2022-12-31T19:12:29.786Z,77.82
2022-12-31T19:15:39.059Z,77.80
2022-12-31T19:18:42.731Z,77.77
2022-12-31T19:21:46.266Z,77.74
2022-12-31T19:24:49.636Z,77.69
2022-12-31T19:27:53.434Z,77.65
2022-12-31T19:30:56.719Z,77.62
2022-12-31T19:34:00.004Z,77.59
2022-12-31T19:37:03.455Z,77.54
2022-12-31T19:40:07.900Z,77.52
2022-12-31T19:43:14.597Z,77.50
2022-12-31T19:46:18.821Z,77.47
2022-12-31T19:49:22.144Z,77.45
2022-12-31T19:52:25.605Z,77.42
2022-12-31T19:55:28.880Z,77.38
2022-12-31T19:58:32.117Z,77.36
2022-12-31T20:01:35.547Z,77.32
2022-12-31T20:04:38.797Z,77.29
2022-12-31T20:07:42.182Z,77.26
2022-12-31T20:10:46.067Z,77.24
2022-12-31T20:13:52.225Z,77.19
2022-12-31T20:16:56.226Z,77.16
2022-12-31T20:19:59.681Z,77.11
2022-12-31T20:23:02.942Z,77.08
2022-12-31T20:26:06.223Z,77.03
2022-12-31T20:29:09.471Z,77.01
2022-12-31T20:32:12.753Z,76.93
2022-12-31T20:35:16.343Z,76.87
2022-12-31T20:38:19.640Z,76.81
2022-12-31T20:41:23.644Z,76.67
2022-12-31T20:44:26.936Z,76.62
2022-12-31T20:47:30.088Z,76.54
2022-12-31T20:50:33.288Z,76.49
2022-12-31T20:53:36.715Z,76.40
2022-12-31T20:56:41.572Z,76.35
2022-12-31T20:59:44.793Z,76.32
2022-12-31T21:02:56.361Z,76.24
2022-12-31T21:06:01.219Z,76.18
2022-12-31T21:09:07.603Z,76.13
2022-12-31T21:12:32.518Z,76.06
2022-12-31T21:15:35.898Z,75.95
2022-12-31T21:18:39.213Z,75.87
2022-12-31T21:21:42.558Z,75.81
2022-12-31T21:24:48.233Z,75.77
2022-12-31T21:27:51.500Z,75.67
2022-12-31T21:31:03.731Z,75.63
2022-12-31T21:34:08.686Z,75.54
2022-12-31T21:37:11.977Z,75.45
2022-12-31T21:40:15.299Z,75.39
2022-12-31T21:43:18.565Z,75.35
2022-12-31T21:46:21.795Z,75.27
2022-12-31T21:49:25.479Z,75.23
2022-12-31T21:52:31.695Z,75.17
2022-12-31T21:55:56.917Z,75.09
2022-12-31T21:59:18.696Z,75.04
2022-12-31T22:02:41.170Z,74.99
2022-12-31T22:06:16.195Z,75.03
2022-12-31T22:09:19.490Z,74.92
2022-12-31T22:12:22.745Z,74.80
2022-12-31T22:15:26.004Z,74.72
2022-12-31T22:18:29.639Z,74.66
2022-12-31T22:21:32.973Z,74.54
2022-12-31T22:24:36.153Z,74.39
2022-12-31T22:27:39.614Z,74.29
2022-12-31T22:30:42.773Z,74.17
2022-12-31T22:33:46.458Z,74.13
2022-12-31T22:36:49.716Z,73.99
2022-12-31T22:39:52.941Z,73.97
2022-12-31T22:42:56.163Z,73.83
2022-12-31T22:45:59.396Z,73.76
2022-12-31T22:49:04.436Z,73.70
2022-12-31T22:52:08.992Z,73.60
2022-12-31T22:55:12.267Z,73.52
2022-12-31T22:58:15.508Z,73.50
2022-12-31T23:01:22.626Z,73.47
2022-12-31T23:04:25.993Z,73.41
2022-12-31T23:07:29.223Z,73.28
2022-12-31T23:10:50.870Z,73.24
2022-12-31T23:14:12.688Z,73.26
2022-12-31T23:17:43.560Z,73.16
2022-12-31T23:21:05.308Z,73.07
2022-12-31T23:24:15.699Z,72.99
2022-12-31T23:27:22.651Z,73.05
2022-12-31T23:30:25.964Z,72.97
2022-12-31T23:33:29.135Z,72.83
2022-12-31T23:36:32.641Z,72.76
2022-12-31T23:39:35.897Z,72.73
2022-12-31T23:42:39.370Z,72.65
2022-12-31T23:45:42.550Z,72.61
2022-12-31T23:48:45.754Z,72.48
2022-12-31T23:51:49.065Z,72.47
2022-12-31T23:54:52.348Z,72.38
2022-12-31T23:57:55.531Z,72.32
